createdAt,value
2018-11-27T00:01:02.103Z,16.20
2018-11-27T00:03:12.345Z,15.60
2018-11-27T00:05:27.247Z,16.10
2018-11-27T00:07:36.109Z,16.87
2018-11-27T00:09:44.918Z,16.40
2018-11-27T00:11:56.524Z,16.93
2018-11-27T00:14:07.625Z,15.80
2018-11-27T00:16:17.367Z,16.13
2018-11-27T00:18:34.790Z,16.37
2018-11-27T00:20:56.291Z,15.87
2018-11-27T00:23:07.585Z,15.83
2018-11-27T00:25:20.737Z,17.17
2018-11-27T00:27:29.526Z,16.80
2018-11-27T00:29:36.910Z,15.80
2018-11-27T00:31:53.044Z,16.20
2018-11-27T00:34:05.339Z,16.73
2018-11-27T00:36:16.665Z,17.00
2018-11-27T00:38:26.177Z,15.33
2018-11-27T00:43:03.475Z,15.10
2018-11-27T00:45:20.993Z,15.27
2018-11-27T00:47:36.457Z,15.97
2018-11-27T00:49:47.544Z,15.17
2018-11-27T00:51:56.992Z,16.07
2018-11-27T00:54:08.899Z,15.80
2018-11-27T00:56:18.485Z,14.93
2018-11-27T00:58:34.213Z,14.33
2018-11-27T01:00:47.286Z,14.00
2018-11-27T01:02:59.499Z,14.83
2018-11-27T01:05:08.671Z,14.47
2018-11-27T01:07:18.374Z,13.43
2018-11-27T01:09:27.200Z,14.47
2018-11-27T01:11:42.020Z,13.47
2018-11-27T01:13:49.086Z,14.97
2018-11-27T01:16:00.026Z,14.43
2018-11-27T01:18:14.009Z,15.03
2018-11-27T01:20:24.359Z,13.90
2018-11-27T01:22:33.958Z,15.90
2018-11-27T01:24:43.541Z,14.97
2018-11-27T01:26:54.470Z,14.97
2018-11-27T01:29:07.403Z,15.13
2018-11-27T01:31:17.009Z,14.43
2018-11-27T01:33:27.608Z,14.30
2018-11-27T01:35:37.675Z,14.00
2018-11-27T01:40:06.369Z,14.83
2018-11-27T01:42:20.186Z,14.77
2018-11-27T01:44:32.743Z,15.17
2018-11-27T01:46:43.418Z,15.43
2018-11-27T01:48:53.370Z,15.73
2018-11-27T01:51:02.160Z,14.73
2018-11-27T01:53:18.532Z,14.70
2018-11-27T01:55:42.178Z,15.60
2018-11-27T01:58:06.852Z,14.83
2018-11-27T02:00:31.896Z,15.60
2018-11-27T02:02:42.707Z,15.73
2018-11-27T02:04:56.865Z,14.60
2018-11-27T02:07:05.875Z,14.60
2018-11-27T02:09:15.288Z,15.20
2018-11-27T02:11:28.965Z,14.87
2018-11-27T02:13:40.605Z,15.77
2018-11-27T02:15:49.978Z,14.93
2018-11-27T02:17:59.454Z,15.27
2018-11-27T02:20:09.116Z,15.27
2018-11-27T02:22:17.273Z,14.70
2018-11-27T02:24:32.193Z,16.37
2018-11-27T02:26:42.380Z,15.20
2018-11-27T02:28:50.198Z,14.00
2018-11-27T02:30:59.641Z,15.90
2018-11-27T02:33:14.391Z,14.93
2018-11-27T02:35:26.960Z,16.00
2018-11-27T02:37:37.153Z,16.03
2018-11-27T02:42:08.789Z,16.77
2018-11-27T02:44:15.351Z,16.53
2018-11-27T02:46:28.819Z,16.40
2018-11-27T02:48:42.587Z,17.33
2018-11-27T02:50:54.654Z,16.77
2018-11-27T02:53:12.026Z,16.53
2018-11-27T02:55:30.811Z,16.13
2018-11-27T02:57:41.722Z,16.97
2018-11-27T02:59:54.299Z,16.80
2018-11-27T03:02:02.967Z,17.27
2018-11-27T03:04:12.603Z,16.67
2018-11-27T03:06:24.615Z,17.20
2018-11-27T03:08:34.338Z,16.03
2018-11-27T03:10:42.167Z,16.27
2018-11-27T03:12:53.555Z,17.33
2018-11-27T03:15:06.669Z,16.23
2018-11-27T03:17:15.660Z,17.30
2018-11-27T03:19:26.512Z,16.60
2018-11-27T03:21:38.905Z,17.90
2018-11-27T03:23:48.120Z,17.03
2018-11-27T03:25:57.617Z,16.83
2018-11-27T03:28:11.380Z,16.50
2018-11-27T03:30:24.669Z,16.67
2018-11-27T03:32:34.229Z,17.07
2018-11-27T03:34:49.958Z,15.83
2018-11-27T03:37:06.141Z,16.50
2018-11-27T03:39:28.328Z,16.53
2018-11-27T03:41:38.549Z,16.83
2018-11-27T03:43:53.779Z,16.67
2018-11-27T03:46:02.605Z,17.17
2018-11-27T03:48:11.696Z,17.70
2018-11-27T03:50:28.187Z,16.47
2018-11-27T03:54:56.990Z,17.80
2018-11-27T03:57:04.290Z,15.63
2018-11-27T03:59:15.208Z,16.97
2018-11-27T04:01:22.046Z,17.23
2018-11-27T04:03:29.490Z,16.70
2018-11-27T04:07:54.481Z,16.30
2018-11-27T04:10:03.864Z,17.03
2018-11-27T04:12:12.991Z,17.33
2018-11-27T04:14:23.387Z,18.07
2018-11-27T04:16:33.410Z,17.53
2018-11-27T04:18:44.964Z,18.03
2018-11-27T04:20:55.705Z,17.93
2018-11-27T04:23:06.454Z,18.00
2018-11-27T04:27:35.243Z,18.00
2018-11-27T04:29:43.945Z,18.77
2018-11-27T04:31:53.296Z,16.63
2018-11-27T04:34:05.746Z,18.50
2018-11-27T04:36:18.085Z,17.60
2018-11-27T04:38:30.777Z,18.13
2018-11-27T04:40:42.291Z,18.70
2018-11-27T04:42:50.633Z,17.63
2018-11-27T04:44:59.751Z,17.93
2018-11-27T04:47:09.486Z,18.53
2018-11-27T04:49:19.708Z,17.77
2018-11-27T04:51:29.291Z,18.00
2018-11-27T04:53:39.400Z,17.60
2018-11-27T04:55:53.055Z,17.70
2018-11-27T04:58:03.285Z,18.50
2018-11-27T05:00:17.426Z,17.47
2018-11-27T05:02:31.626Z,17.47
2018-11-27T05:04:42.239Z,18.33
2018-11-27T05:06:51.645Z,17.43
2018-11-27T05:10:56.807Z,17.73
2018-11-27T05:13:04.001Z,18.07
2018-11-27T05:15:18.740Z,17.23
2018-11-27T05:17:27.945Z,17.33
2018-11-27T05:19:37.504Z,18.93
2018-11-27T05:21:51.388Z,18.27
2018-11-27T05:24:00.644Z,19.03
2018-11-27T05:26:09.858Z,16.83
2018-11-27T05:28:22.283Z,17.73
2018-11-27T05:30:32.746Z,18.97
2018-11-27T05:32:39.425Z,18.93
2018-11-27T05:34:50.073Z,18.30
2018-11-27T05:36:59.256Z,18.37
2018-11-27T05:39:11.778Z,18.43
2018-11-27T05:41:21.404Z,19.33
2018-11-27T05:43:31.763Z,18.63
2018-11-27T05:45:39.057Z,19.53
2018-11-27T05:47:53.500Z,19.17
2018-11-27T05:50:04.122Z,19.53
2018-11-27T05:52:10.673Z,19.40
2018-11-27T05:54:20.040Z,19.73
2018-11-27T05:56:28.450Z,19.10
2018-11-27T05:58:36.860Z,19.90
2018-11-27T06:00:50.356Z,19.93
2018-11-27T06:03:11.641Z,19.30
2018-11-27T06:05:20.605Z,21.03
2018-11-27T06:07:29.184Z,20.83
2018-11-27T06:09:38.701Z,22.40
2018-11-27T06:11:46.923Z,20.43
2018-11-27T06:13:57.699Z,20.80
2018-11-27T06:16:06.980Z,20.93
2018-11-27T06:18:16.203Z,21.27
2018-11-27T06:20:26.993Z,21.73
2018-11-27T06:22:36.912Z,20.77
2018-11-27T06:24:48.616Z,19.37
2018-11-27T06:26:59.729Z,21.27
2018-11-27T06:29:08.896Z,20.73
2018-11-27T06:31:22.975Z,20.60
2018-11-27T06:33:34.389Z,20.97
2018-11-27T06:35:49.227Z,20.77
2018-11-27T06:37:58.812Z,20.00
2018-11-27T06:40:13.407Z,20.63
2018-11-27T06:42:22.854Z,21.37
2018-11-27T06:44:30.673Z,21.23
2018-11-27T06:46:43.210Z,20.40
2018-11-27T06:48:51.503Z,20.07
2018-11-27T06:51:03.235Z,21.27
2018-11-27T06:53:14.008Z,21.13
2018-11-27T06:55:26.474Z,21.23
2018-11-27T06:57:32.928Z,20.23
2018-11-27T06:59:41.968Z,20.90
2018-11-27T07:01:56.325Z,21.50
2018-11-27T07:04:07.768Z,21.27
2018-11-27T07:06:25.540Z,19.90
2018-11-27T07:08:34.440Z,21.93
2018-11-27T07:13:05.164Z,20.07
2018-11-27T07:15:24.439Z,21.10
2018-11-27T07:17:31.723Z,20.00
2018-11-27T07:19:46.268Z,21.13
2018-11-27T07:22:02.203Z,19.43
2018-11-27T07:24:26.108Z,19.97
2018-11-27T07:26:38.677Z,19.67
2018-11-27T07:28:47.076Z,20.30
2018-11-27T07:31:00.677Z,20.70
2018-11-27T07:33:19.540Z,19.90
2018-11-27T07:35:33.366Z,19.17
2018-11-27T07:37:41.957Z,19.33
2018-11-27T07:39:50.447Z,20.83
2018-11-27T07:42:04.239Z,19.83
2018-11-27T07:44:14.074Z,20.00
2018-11-27T07:46:20.678Z,19.90
2018-11-27T07:48:30.271Z,19.37
2018-11-27T07:50:40.777Z,21.07
2018-11-27T07:52:58.948Z,20.63
2018-11-27T07:55:10.649Z,20.97
2018-11-27T07:57:25.607Z,20.47
2018-11-27T07:59:34.500Z,19.53
2018-11-27T08:01:44.990Z,20.27
2018-11-27T08:03:52.709Z,21.03
2018-11-27T08:06:04.404Z,17.90
2018-11-27T08:08:18.790Z,19.63
2018-11-27T08:10:36.629Z,19.93
2018-11-27T08:12:46.973Z,19.83
2018-11-27T08:14:59.557Z,18.37
2018-11-27T08:17:10.720Z,20.13
2018-11-27T08:19:20.382Z,19.13
2018-11-27T08:21:32.803Z,19.73
2018-11-27T08:23:42.829Z,19.37
2018-11-27T08:25:54.934Z,20.83
2018-11-27T08:27:59.175Z,19.70
2018-11-27T08:30:16.209Z,19.50
2018-11-27T08:34:46.834Z,19.10
2018-11-27T08:37:01.454Z,20.30
2018-11-27T08:41:40.228Z,19.17
2018-11-27T08:43:47.837Z,18.60
2018-11-27T08:45:58.235Z,18.57
2018-11-27T08:48:06.648Z,19.87
2018-11-27T08:50:27.579Z,19.43
2018-11-27T08:52:39.637Z,18.13
2018-11-27T08:54:53.931Z,17.50
2018-11-27T08:57:07.495Z,18.37
2018-11-27T08:59:26.972Z,19.00
2018-11-27T09:01:56.089Z,19.13
2018-11-27T09:04:10.898Z,19.23
2018-11-27T09:06:24.169Z,18.73
2018-11-27T09:08:32.705Z,18.60
2018-11-27T09:10:42.031Z,19.33
2018-11-27T09:12:58.774Z,19.53
2018-11-27T09:17:22.076Z,19.93
2018-11-27T09:19:30.321Z,19.70
2018-11-27T09:21:43.162Z,20.30
2018-11-27T09:23:53.357Z,17.93
2018-11-27T09:26:06.609Z,20.33
2018-11-27T09:28:18.998Z,20.47
2018-11-27T09:30:31.555Z,19.80
2018-11-27T09:32:40.832Z,18.77
2018-11-27T09:34:52.793Z,20.30
2018-11-27T09:37:10.425Z,20.27
2018-11-27T09:41:42.399Z,20.97
2018-11-27T09:43:50.335Z,21.53
2018-11-27T09:46:00.186Z,21.33
2018-11-27T09:48:10.002Z,20.87
2018-11-27T09:50:25.308Z,20.80
2018-11-27T09:52:43.645Z,21.10
2018-11-27T09:54:55.606Z,22.53
2018-11-27T09:57:05.464Z,22.30
2018-11-27T09:59:15.135Z,21.10
2018-11-27T10:01:24.234Z,23.47
2018-11-27T10:03:36.813Z,21.83
2018-11-27T10:05:45.276Z,23.00
2018-11-27T10:07:54.277Z,22.47
2018-11-27T10:10:09.837Z,21.03
2018-11-27T10:12:21.758Z,21.67
2018-11-27T10:14:32.370Z,21.30
2018-11-27T10:16:41.997Z,21.57
2018-11-27T10:18:58.762Z,20.47
2018-11-27T10:21:09.458Z,22.23
2018-11-27T10:23:22.144Z,21.73
2018-11-27T10:25:29.583Z,21.60
2018-11-27T10:27:38.627Z,21.97
2018-11-27T10:29:50.828Z,21.80
2018-11-27T10:34:17.657Z,22.63
2018-11-27T10:36:29.998Z,22.63
2018-11-27T10:38:38.785Z,21.90
2018-11-27T10:43:22.616Z,24.03
2018-11-27T10:45:34.390Z,23.63
2018-11-27T10:47:46.772Z,24.27
2018-11-27T10:50:01.040Z,23.80
2018-11-27T10:52:11.528Z,24.53
2018-11-27T10:54:19.352Z,23.33
2018-11-27T10:56:28.882Z,23.80
2018-11-27T10:58:38.746Z,22.87
2018-11-27T11:00:52.696Z,23.70
2018-11-27T11:03:41.464Z,23.17
2018-11-27T11:05:50.083Z,23.60
2018-11-27T11:08:00.761Z,22.10
2018-11-27T11:10:16.348Z,23.60
2018-11-27T11:12:26.442Z,21.17
2018-11-27T11:14:40.674Z,24.07
2018-11-27T11:16:51.552Z,22.77
2018-11-27T11:19:05.323Z,23.07
2018-11-27T11:21:16.387Z,22.63
2018-11-27T11:23:27.544Z,23.43
2018-11-27T11:25:36.270Z,22.57
2018-11-27T11:27:51.236Z,23.60
2018-11-27T11:30:06.648Z,22.67
2018-11-27T11:32:15.057Z,24.10
2018-11-27T11:34:22.885Z,23.17
2018-11-27T11:36:31.674Z,21.97
2018-11-27T11:38:44.497Z,22.87
2018-11-27T11:41:02.558Z,24.90
2018-11-27T11:43:11.263Z,24.43
2018-11-27T11:47:42.294Z,22.53
2018-11-27T11:49:52.831Z,23.10
2018-11-27T11:52:06.436Z,24.70
2018-11-27T11:54:25.303Z,23.13
2018-11-27T11:56:34.522Z,22.13
2018-11-27T11:58:43.667Z,22.20
2018-11-27T12:00:54.984Z,22.70
2018-11-27T12:03:16.557Z,20.47
2018-11-27T12:05:33.065Z,23.80
2018-11-27T12:07:46.207Z,22.97
2018-11-27T12:09:57.877Z,23.77
2018-11-27T12:12:08.923Z,23.67
2018-11-27T12:14:18.589Z,22.70
2018-11-27T12:16:32.026Z,23.60
2018-11-27T12:18:46.011Z,22.20
2018-11-27T12:21:01.773Z,22.10
2018-11-27T12:23:15.731Z,21.80
2018-11-27T12:25:25.501Z,22.07
2018-11-27T12:27:38.496Z,23.10
2018-11-27T12:29:45.614Z,21.10
2018-11-27T12:31:58.675Z,22.57
2018-11-27T12:34:05.501Z,23.23
2018-11-27T12:36:19.465Z,21.40
2018-11-27T12:38:29.327Z,21.23
2018-11-27T12:40:42.097Z,22.20
2018-11-27T12:42:52.375Z,22.53
2018-11-27T12:45:05.329Z,22.40
2018-11-27T12:47:14.854Z,20.90
2018-11-27T12:49:28.641Z,23.90
2018-11-27T12:51:42.926Z,22.47
2018-11-27T12:53:52.799Z,23.83
2018-11-27T12:56:03.741Z,22.30
2018-11-27T12:58:14.907Z,23.70
2018-11-27T13:00:33.011Z,23.67
2018-11-27T13:02:51.070Z,24.00
2018-11-27T13:05:00.342Z,23.00
2018-11-27T13:07:16.160Z,22.87
2018-11-27T13:09:35.788Z,23.50
2018-11-27T13:11:55.326Z,24.10
2018-11-27T13:14:09.061Z,24.30
2018-11-27T13:16:20.860Z,23.90
2018-11-27T13:18:35.105Z,24.93
2018-11-27T13:20:51.083Z,24.93
2018-11-27T13:22:57.302Z,23.93
2018-11-27T13:25:12.874Z,23.67
2018-11-27T13:27:23.471Z,23.40
2018-11-27T13:29:33.749Z,23.63
2018-11-27T13:31:43.775Z,24.47
2018-11-27T13:38:47.118Z,24.20
2018-11-27T13:41:00.665Z,25.07
2018-11-27T13:43:16.763Z,23.37
2018-11-27T13:45:29.044Z,26.47
2018-11-27T13:47:38.753Z,26.80
2018-11-27T13:49:50.576Z,26.57
2018-11-27T13:52:01.949Z,26.57
2018-11-27T14:02:21.405Z,26.47
2018-11-27T14:04:37.316Z,25.37
2018-11-27T14:06:46.271Z,26.10
2018-11-27T14:08:55.671Z,25.23
2018-11-27T14:11:04.992Z,23.13
2018-11-27T14:13:14.177Z,25.10
2018-11-27T14:15:30.993Z,24.23
2018-11-27T14:17:42.204Z,23.83
2018-11-27T14:19:54.762Z,25.57
2018-11-27T14:22:06.248Z,24.60
2018-11-27T14:24:22.047Z,24.80
2018-11-27T14:26:34.715Z,25.47
2018-11-27T14:28:47.061Z,24.30
2018-11-27T14:31:02.637Z,24.07
2018-11-27T14:33:19.129Z,24.00
2018-11-27T14:35:30.154Z,25.70
2018-11-27T14:37:40.136Z,24.30
2018-11-27T14:39:54.482Z,23.90
2018-11-27T14:42:12.357Z,24.63
2018-11-27T14:46:44.265Z,24.93
2018-11-27T14:48:55.357Z,23.40
2018-11-27T14:51:05.643Z,23.50
2018-11-27T14:53:18.115Z,21.23
2018-11-27T14:55:32.119Z,22.97
2018-11-27T14:57:44.779Z,22.00
2018-11-27T14:59:59.196Z,23.23
2018-11-27T15:02:17.403Z,23.17
2018-11-27T15:04:34.936Z,22.53
2018-11-27T15:06:52.148Z,23.63
2018-11-27T15:11:26.598Z,25.47
2018-11-27T15:13:39.247Z,24.37
2018-11-27T15:15:55.541Z,22.13
2018-11-27T15:18:08.737Z,24.57
2018-11-27T15:20:24.245Z,23.23
2018-11-27T15:22:42.831Z,23.43
2018-11-27T15:24:57.566Z,23.40
2018-11-27T15:27:10.475Z,23.30
2018-11-27T15:29:28.008Z,22.93
2018-11-27T15:31:55.813Z,23.60
2018-11-27T15:34:12.666Z,22.57
2018-11-27T15:36:27.089Z,22.93
2018-11-27T15:38:43.396Z,23.73
2018-11-27T15:40:54.440Z,24.23
2018-11-27T15:43:08.192Z,22.50
2018-11-27T15:45:29.966Z,23.70
2018-11-27T15:47:50.226Z,23.37
2018-11-27T15:50:03.812Z,22.90
2018-11-27T15:52:15.716Z,23.00
2018-11-27T15:56:57.472Z,23.27
2018-11-27T15:59:14.172Z,23.63
2018-11-27T16:01:34.498Z,23.77
2018-11-27T16:03:54.582Z,23.47
2018-11-27T16:06:19.195Z,24.10
2018-11-27T16:08:38.250Z,24.77
2018-11-27T16:10:53.425Z,24.67
2018-11-27T16:13:05.309Z,25.13
2018-11-27T16:15:27.391Z,23.97
2018-11-27T16:17:37.460Z,25.20
2018-11-27T16:19:56.006Z,23.20
2018-11-27T16:22:05.780Z,23.27
2018-11-27T16:24:24.136Z,23.90
2018-11-27T16:26:38.594Z,23.30
2018-11-27T16:28:59.026Z,22.93
2018-11-27T16:31:12.054Z,23.33
2018-11-27T16:33:27.229Z,22.60
2018-11-27T16:35:37.457Z,22.93
2018-11-27T16:37:47.487Z,23.73
2018-11-27T16:42:23.218Z,25.43
2018-11-27T16:44:33.979Z,22.73
2018-11-27T16:46:46.862Z,23.63
2018-11-27T16:48:56.562Z,23.97
2018-11-27T16:51:05.204Z,25.07
2018-11-27T16:53:20.854Z,23.93
2018-11-27T16:55:31.042Z,24.33
2018-11-27T16:57:42.170Z,24.93
2018-11-27T16:59:54.334Z,24.67
2018-11-27T17:02:06.390Z,24.17
2018-11-27T17:04:24.089Z,24.50
2018-11-27T17:06:34.462Z,25.73
2018-11-27T17:08:46.756Z,24.03
2018-11-27T17:10:59.557Z,25.00
2018-11-27T17:13:20.511Z,24.40
2018-11-27T17:15:32.024Z,25.00
2018-11-27T17:17:43.020Z,25.37
2018-11-27T17:19:56.212Z,24.47
2018-11-27T17:22:07.608Z,27.03
2018-11-27T17:24:21.983Z,26.40
2018-11-27T17:26:33.429Z,25.50
2018-11-27T17:28:44.386Z,26.57
2018-11-27T17:31:05.030Z,24.67
2018-11-27T17:33:22.547Z,26.00
2018-11-27T17:35:30.449Z,26.03
2018-11-27T17:37:46.126Z,24.30
2018-11-27T17:40:03.801Z,24.97
2018-11-27T17:42:21.799Z,24.07
2018-11-27T17:46:47.160Z,27.13
2018-11-27T17:48:59.569Z,27.07
2018-11-27T17:51:10.602Z,26.00
2018-11-27T17:53:24.737Z,25.33
2018-11-27T17:55:32.089Z,24.67
2018-11-27T17:57:45.205Z,24.83
2018-11-27T17:59:52.782Z,24.17
2018-11-27T18:02:04.193Z,25.43
2018-11-27T18:04:11.843Z,26.00
2018-11-27T18:06:25.141Z,25.50
2018-11-27T18:08:36.574Z,24.10
2018-11-27T18:10:46.386Z,24.03
2018-11-27T18:12:55.743Z,24.67
2018-11-27T18:15:06.984Z,24.27
2018-11-27T18:17:28.540Z,24.13
2018-11-27T18:19:44.557Z,25.50
2018-11-27T18:21:56.116Z,24.83
2018-11-27T18:24:08.853Z,24.10
2018-11-27T18:26:20.525Z,25.77
2018-11-27T18:30:46.516Z,25.87
2018-11-27T18:33:02.406Z,24.30
2018-11-27T18:35:10.824Z,25.57
2018-11-27T18:37:21.663Z,23.10
2018-11-27T18:39:37.056Z,25.07
2018-11-27T18:41:48.493Z,25.53
2018-11-27T18:44:03.952Z,24.13
2018-11-27T18:46:14.377Z,24.30
2018-11-27T18:48:28.194Z,24.47
2018-11-27T18:50:43.446Z,25.07
2018-11-27T18:52:54.990Z,24.90
2018-11-27T18:55:11.619Z,23.77
2018-11-27T18:57:22.809Z,23.13
2018-11-27T18:59:31.509Z,25.13
2018-11-27T19:01:40.245Z,25.03
2018-11-27T19:03:58.158Z,25.17
2018-11-27T19:06:13.477Z,23.87
2018-11-27T19:08:26.079Z,25.57
2018-11-27T19:10:40.952Z,24.73
2018-11-27T19:12:54.017Z,24.07
2018-11-27T19:15:09.279Z,23.77
2018-11-27T19:17:18.772Z,23.43
2018-11-27T19:19:31.515Z,25.70
2018-11-27T19:21:51.721Z,24.53
2018-11-27T19:24:05.638Z,24.87
2018-11-27T19:26:25.775Z,24.20
2018-11-27T19:28:40.611Z,24.50
2018-11-27T19:30:52.203Z,23.23
2018-11-27T19:33:03.616Z,25.77
2018-11-27T19:35:25.138Z,25.93
2018-11-27T19:37:35.246Z,24.10
2018-11-27T19:39:44.426Z,25.00
2018-11-27T19:41:54.750Z,26.17
2018-11-27T19:44:03.055Z,24.37
2018-11-27T19:46:15.021Z,24.83
2018-11-27T19:48:25.461Z,25.47
2018-11-27T19:50:36.585Z,24.17
2018-11-27T19:52:50.000Z,24.87
2018-11-27T19:55:05.357Z,24.40
2018-11-27T19:57:16.851Z,25.67
2018-11-27T19:59:25.711Z,24.23
2018-11-27T20:01:35.521Z,25.00
2018-11-27T20:03:43.573Z,25.23
2018-11-27T20:06:01.644Z,25.37
2018-11-27T20:08:12.088Z,25.00
2018-11-27T20:10:21.688Z,24.73
2018-11-27T20:12:29.758Z,25.27
2018-11-27T20:14:40.621Z,25.13
2018-11-27T20:17:00.064Z,25.03
2018-11-27T20:19:14.848Z,25.13
2018-11-27T20:21:24.908Z,25.00
2018-11-27T20:23:36.802Z,25.83
2018-11-27T20:25:45.055Z,26.40
2018-11-27T20:28:02.705Z,26.47
2018-11-27T20:30:24.683Z,24.80
2018-11-27T20:32:33.983Z,25.20
2018-11-27T20:34:43.107Z,23.83
2018-11-27T20:36:55.563Z,24.43
2018-11-27T20:39:04.177Z,26.10
2018-11-27T20:41:12.546Z,24.23
2018-11-27T20:43:21.224Z,24.80
2018-11-27T20:45:35.226Z,22.93
2018-11-27T20:47:44.333Z,24.30
2018-11-27T20:49:53.749Z,24.87
2018-11-27T20:52:04.679Z,24.83
2018-11-27T20:54:20.221Z,24.40
2018-11-27T20:56:28.525Z,24.90
2018-11-27T20:58:36.095Z,24.87
2018-11-27T21:00:49.917Z,23.80
2018-11-27T21:03:02.048Z,24.70
2018-11-27T21:05:18.645Z,24.10
2018-11-27T21:07:27.605Z,25.07
2018-11-27T21:09:39.791Z,24.13
2018-11-27T21:11:46.676Z,25.07
2018-11-27T21:13:57.288Z,25.10
2018-11-27T21:16:05.953Z,23.43
2018-11-27T21:18:17.243Z,25.70
2018-11-27T21:20:31.197Z,24.73
2018-11-27T21:22:39.858Z,26.80
2018-11-27T21:24:46.902Z,25.27
2018-11-27T21:26:58.250Z,26.03
2018-11-27T21:29:08.314Z,25.47
2018-11-27T21:31:17.008Z,25.90
2018-11-27T21:33:28.457Z,27.60
2018-11-27T21:35:37.194Z,26.60
2018-11-27T21:37:47.911Z,25.87
2018-11-27T21:39:56.557Z,26.10
2018-11-27T21:42:05.081Z,26.40
2018-11-27T21:44:15.483Z,27.43
2018-11-27T21:46:24.981Z,26.63
2018-11-27T21:53:23.662Z,26.93
2018-11-27T21:55:35.551Z,27.30
2018-11-27T21:57:47.966Z,27.20
2018-11-27T22:00:14.660Z,26.80
2018-11-27T22:02:25.784Z,27.30
2018-11-27T22:04:44.122Z,27.57
2018-11-27T22:06:54.068Z,25.43
2018-11-27T22:09:04.590Z,27.53
2018-11-27T22:11:16.083Z,27.17
2018-11-27T22:13:24.068Z,26.93
2018-11-27T22:15:35.547Z,25.97
2018-11-27T22:17:52.005Z,26.67
2018-11-27T22:20:08.201Z,26.07
2018-11-27T22:22:14.816Z,26.43
2018-11-27T22:24:23.022Z,25.97
2018-11-27T22:26:32.552Z,26.17
2018-11-27T22:28:41.696Z,26.40
2018-11-27T22:30:54.297Z,27.67
2018-11-27T22:33:04.347Z,27.20
2018-11-27T22:35:15.183Z,27.07
2018-11-27T22:37:24.333Z,26.80
2018-11-27T22:39:32.170Z,26.93
2018-11-27T22:41:41.329Z,27.30
2018-11-27T22:43:46.809Z,26.77
2018-11-27T22:45:55.795Z,26.97
2018-11-27T22:48:04.758Z,27.90
2018-11-27T22:50:15.622Z,26.93
2018-11-27T22:52:26.424Z,27.10
2018-11-27T22:54:35.211Z,26.20
2018-11-27T22:56:44.362Z,25.47
2018-11-27T22:58:56.330Z,25.47
2018-11-27T23:01:05.451Z,25.80
2018-11-27T23:03:12.512Z,26.97
2018-11-27T23:05:20.113Z,25.77
2018-11-27T23:07:32.645Z,26.27
2018-11-27T23:09:41.346Z,26.57
2018-11-27T23:11:50.423Z,25.37
2018-11-27T23:13:58.217Z,26.07
2018-11-27T23:16:05.579Z,26.50
2018-11-27T23:18:11.684Z,25.63
2018-11-27T23:20:21.478Z,26.63
2018-11-27T23:22:32.344Z,27.30
2018-11-27T23:24:38.763Z,27.10
2018-11-27T23:26:53.273Z,26.57
2018-11-27T23:29:04.029Z,26.87
2018-11-27T23:31:12.146Z,27.50
2018-11-27T23:33:23.833Z,25.70
2018-11-27T23:35:34.352Z,25.17
2018-11-27T23:37:43.533Z,26.63
2018-11-27T23:39:57.448Z,26.30
2018-11-27T23:42:10.157Z,26.43
2018-11-27T23:44:22.070Z,26.93
2018-11-27T23:46:36.694Z,26.93
2018-11-27T23:51:05.432Z,27.43
2018-11-27T23:53:18.269Z,26.13
2018-11-27T23:55:28.271Z,27.37
2018-11-27T23:57:37.625Z,26.13
2018-11-27T23:59:52.116Z,26.10
